Time;durP1;ratioP1;P1;durP2;ratioP2;P2;SDS_P1;SDS_P2;PMS_P1;PMS_P2;Temp;Humidity;BMP_temperature;BMP_pressure;BME280_temperature;BME280_humidity;BME280_pressure;Samples;Min_cycle;Max_cycle;Signal;HPM_P1;HPM_P2
2022/04/04 00:01:29;;;;;;;7.10;4.30;;;;;;;;;;4994717;28;99401;-74
2022/04/04 00:03:56;;;;;;;4.70;4.30;;;;;;;;;;4994515;28;99112;-75
2022/04/04 00:06:22;;;;;;;7.13;5.00;;;;;;;;;;4994815;28;99386;-72
2022/04/04 00:08:49;;;;;;;5.10;4.68;;;;;;;;;;4994567;28;99305;-74
2022/04/04 00:11:15;;;;;;;5.53;5.03;;;;;;;;;;4997906;28;100172;-73
2022/04/04 00:13:42;;;;;;;5.88;5.38;;;;;;;;;;4994876;28;99611;-72
2022/04/04 00:16:08;;;;;;;5.72;5.20;;;;;;;;;;4993611;28;100148;-73
2022/04/04 00:18:34;;;;;;;6.25;5.65;;;;;;;;;;4994544;28;98350;-74
2022/04/04 00:21:01;;;;;;;8.90;5.60;;;;;;;;;;4994389;28;99265;-76
2022/04/04 00:23:27;;;;;;;8.95;5.97;;;;;;;;;;4994100;28;99326;-73
2022/04/04 00:25:54;;;;;;;11.82;6.80;;;;;;;;;;4993521;28;98974;-72
2022/04/04 00:28:20;;;;;;;11.35;6.00;;;;;;;;;;4994458;28;98849;-74
2022/04/04 00:30:47;;;;;;;8.32;5.90;;;;;;;;;;4993143;28;100306;-73
2022/04/04 00:33:13;;;;;;;6.95;6.32;;;;;;;;;;4998245;28;98589;-74
2022/04/04 00:35:40;;;;;;;12.95;6.90;;;;;;;;;;4993889;28;99762;-73
2022/04/04 00:38:08;;;;;;;8.57;7.43;;;;;;;;;;4994577;28;98524;-74
2022/04/04 00:40:34;;;;;;;12.13;8.50;;;;;;;;;;4994002;28;99565;-73
2022/04/04 00:43:01;;;;;;;10.57;7.88;;;;;;;;;;4993934;28;99279;-73
2022/04/04 00:45:27;;;;;;;9.20;7.55;;;;;;;;;;4994064;28;98758;-72
2022/04/04 00:47:53;;;;;;;10.02;7.97;;;;;;;;;;4993355;28;98953;-72
2022/04/04 00:50:22;;;;;;;13.77;9.13;;;;;;;;;;4993697;28;99267;-72
2022/04/04 00:52:49;;;;;;;8.90;7.97;;;;;;;;;;4993973;28;98339;-75
2022/04/04 00:55:16;;;;;;;12.50;8.93;;;;;;;;;;4996806;28;99464;-73
2022/04/04 00:57:42;;;;;;;10.48;8.32;;;;;;;;;;4993657;28;97638;-74
2022/04/04 01:00:09;;;;;;;10.32;8.63;;;;;;;;;;4993318;28;100416;-75
2022/04/04 01:02:36;;;;;;;14.98;9.02;;;;;;;;;;4993539;28;100187;-73
2022/04/04 01:05:04;;;;;;;10.63;8.23;;;;;;;;;;4993386;28;98969;-73
2022/04/04 01:07:31;;;;;;;9.10;8.18;;;;;;;;;;4993794;28;100234;-74
2022/04/04 01:09:57;;;;;;;10.90;8.85;;;;;;;;;;4993309;28;99568;-74
2022/04/04 01:12:24;;;;;;;11.27;8.82;;;;;;;;;;4993799;28;98357;-74
2022/04/04 01:14:50;;;;;;;13.52;9.15;;;;;;;;;;4992131;28;100603;-73
2022/04/04 01:17:17;;;;;;;10.38;8.70;;;;;;;;;;4996762;28;99892;-75
2022/04/04 01:19:44;;;;;;;12.82;8.70;;;;;;;;;;4993459;28;99643;-73
2022/04/04 01:22:12;;;;;;;12.15;9.02;;;;;;;;;;4993362;28;99025;-74
2022/04/04 01:24:41;;;;;;;13.43;8.73;;;;;;;;;;4993320;28;98460;-73
2022/04/04 01:27:08;;;;;;;10.50;8.20;;;;;;;;;;4993205;28;99157;-73
2022/04/04 01:29:35;;;;;;;10.40;8.75;;;;;;;;;;4990075;28;100387;-74
2022/04/04 01:32:01;;;;;;;13.73;9.32;;;;;;;;;;4993394;28;98458;-73
2022/04/04 01:34:29;;;;;;;11.25;8.95;;;;;;;;;;4993536;28;99503;-72
2022/04/04 01:36:56;;;;;;;12.45;9.10;;;;;;;;;;4996174;28;100164;-72
2022/04/04 01:39:22;;;;;;;14.55;9.40;;;;;;;;;;4993468;28;99339;-72
2022/04/04 01:41:49;;;;;;;11.02;8.75;;;;;;;;;;4992181;28;101999;-72
2022/04/04 01:44:16;;;;;;;11.68;9.32;;;;;;;;;;4993352;28;98395;-72
2022/04/04 01:46:42;;;;;;;13.48;9.13;;;;;;;;;;4992247;28;99688;-71
2022/04/04 01:49:09;;;;;;;10.68;9.32;;;;;;;;;;4992927;28;99579;-72
2022/04/04 01:51:36;;;;;;;12.23;9.50;;;;;;;;;;4992376;28;99012;-75
2022/04/04 01:54:03;;;;;;;14.63;9.20;;;;;;;;;;4992669;28;99890;-73
2022/04/04 01:56:30;;;;;;;14.93;9.57;;;;;;;;;;4991978;28;99516;-73
2022/04/04 01:58:58;;;;;;;14.73;9.80;;;;;;;;;;4996154;28;98364;-73
2022/04/04 02:01:25;;;;;;;16.38;9.93;;;;;;;;;;4992669;28;99736;-73
2022/04/04 02:03:53;;;;;;;12.73;9.77;;;;;;;;;;4992833;28;98455;-74
2022/04/04 02:06:19;;;;;;;13.32;10.80;;;;;;;;;;4992820;28;99625;-72
2022/04/04 02:08:46;;;;;;;13.23;10.10;;;;;;;;;;4991782;28;99699;-74
2022/04/04 02:11:13;;;;;;;13.45;10.45;;;;;;;;;;4992187;28;97703;-73
2022/04/04 02:13:40;;;;;;;15.10;10.27;;;;;;;;;;4992139;28;98702;-73
2022/04/04 02:16:06;;;;;;;14.18;10.52;;;;;;;;;;4991723;28;100052;-74
2022/04/04 02:18:34;;;;;;;14.52;10.38;;;;;;;;;;4991536;28;99278;-73
2022/04/04 02:21:01;;;;;;;17.60;10.30;;;;;;;;;;4994733;28;100117;-73
2022/04/04 02:23:28;;;;;;;15.63;10.65;;;;;;;;;;4991511;28;98335;-73
2022/04/04 02:25:58;;;;;;;14.13;10.75;;;;;;;;;;4991527;28;100867;-74
2022/04/04 02:28:25;;;;;;;12.70;10.57;;;;;;;;;;4991665;28;99538;-72
2022/04/04 02:30:53;;;;;;;14.85;11.13;;;;;;;;;;4991952;28;99148;-72
2022/04/04 02:33:20;;;;;;;12.32;10.65;;;;;;;;;;4995361;28;99430;-73
2022/04/04 02:35:50;;;;;;;13.27;11.40;;;;;;;;;;4995392;28;98708;-74
2022/04/04 02:38:18;;;;;;;12.43;10.27;;;;;;;;;;4994806;28;99311;-74
2022/04/04 02:40:44;;;;;;;12.63;10.75;;;;;;;;;;4995105;28;101326;-72
2022/04/04 02:43:10;;;;;;;13.98;11.73;;;;;;;;;;4997474;28;100418;-73
2022/04/04 02:45:37;;;;;;;14.93;12.32;;;;;;;;;;4995089;28;100024;-72
2022/04/04 02:48:04;;;;;;;13.85;11.45;;;;;;;;;;4994669;28;99747;-72
2022/04/04 02:50:30;;;;;;;16.25;12.02;;;;;;;;;;4995087;28;99444;-72
2022/04/04 02:52:57;;;;;;;15.07;11.68;;;;;;;;;;4994646;28;100391;-73
2022/04/04 02:58:09;;;;;;;17.10;11.88;;;;;;;;;;4994653;28;98379;-73
2022/04/04 03:00:36;;;;;;;15.32;12.13;;;;;;;;;;4995547;28;99401;-72
2022/04/04 03:03:02;;;;;;;13.75;11.65;;;;;;;;;;4994296;28;100045;-74
2022/04/04 03:05:29;;;;;;;15.25;12.18;;;;;;;;;;4998248;28;98394;-73
2022/04/04 03:07:55;;;;;;;15.95;12.43;;;;;;;;;;4994017;28;100474;-73
2022/04/04 03:10:21;;;;;;;16.20;12.13;;;;;;;;;;4994956;28;98355;-73
2022/04/04 03:12:53;;;;;;;18.45;11.48;;;;;;;;;;4994743;28;99452;-73
2022/04/04 03:15:21;;;;;;;16.48;11.38;;;;;;;;;;4994475;28;99733;-72
2022/04/04 03:17:49;;;;;;;17.00;12.18;;;;;;;;;;4994194;28;98410;-73
2022/04/04 03:20:18;;;;;;;15.88;11.10;;;;;;;;;;4994722;28;99713;-72
2022/04/04 03:22:46;;;;;;;15.68;11.35;;;;;;;;;;4994337;28;99566;-73
2022/04/04 03:25:13;;;;;;;14.05;11.02;;;;;;;;;;4995060;28;97788;-72
2022/04/04 03:27:39;;;;;;;16.15;11.68;;;;;;;;;;4997612;28;98838;-73
2022/04/04 03:30:10;;;;;;;11.38;9.75;;;;;;;;;;4994313;28;99403;-72
2022/04/04 03:32:36;;;;;;;14.48;9.90;;;;;;;;;;4994313;28;99809;-72
2022/04/04 03:35:04;;;;;;;11.73;10.25;;;;;;;;;;4994807;28;98969;-73
2022/04/04 03:37:31;;;;;;;12.70;10.30;;;;;;;;;;4994417;28;98466;-73
2022/04/04 03:39:58;;;;;;;13.32;9.85;;;;;;;;;;4994362;28;99742;-73
2022/04/04 03:42:24;;;;;;;14.13;9.80;;;;;;;;;;4994851;28;99595;-72
2022/04/04 03:44:50;;;;;;;12.32;9.95;;;;;;;;;;4993732;28;98311;-73
2022/04/04 03:47:17;;;;;;;17.20;9.20;;;;;;;;;;4997618;28;99330;-72
2022/04/04 03:49:44;;;;;;;10.82;9.65;;;;;;;;;;4995567;28;97646;-73
2022/04/04 03:52:11;;;;;;;10.88;9.75;;;;;;;;;;4993698;28;99700;-72
2022/04/04 03:54:38;;;;;;;13.35;10.00;;;;;;;;;;4994536;28;100094;-72
2022/04/04 03:57:05;;;;;;;11.20;9.43;;;;;;;;;;4992511;28;99102;-73
2022/04/04 03:59:32;;;;;;;14.02;9.63;;;;;;;;;;4994229;28;99449;-73
2022/04/04 04:01:58;;;;;;;9.70;8.70;;;;;;;;;;4994244;28;99850;-74
2022/04/04 04:04:24;;;;;;;12.57;10.25;;;;;;;;;;4994704;28;98409;-74
2022/04/04 04:06:51;;;;;;;8.80;7.38;;;;;;;;;;4993938;28;98677;-73
2022/04/04 04:09:18;;;;;;;12.60;9.63;;;;;;;;;;4997652;28;99612;-74
2022/04/04 04:11:45;;;;;;;14.55;9.73;;;;;;;;;;4994591;28;98736;-73
2022/04/04 04:14:11;;;;;;;11.40;9.13;;;;;;;;;;4993912;28;99784;-73
2022/04/04 04:16:38;;;;;;;15.23;9.45;;;;;;;;;;4994374;28;98230;-72
2022/04/04 04:20:19;;;;;;;12.68;10.07;;;;;;;;;;4994409;28;98884;-73
2022/04/04 04:21:50;;;;;;;9.25;8.27;;;;;;;;;;4992624;28;99710;-72
2022/04/04 04:24:17;;;;;;;9.90;8.93;;;;;;;;;;4994633;28;98333;-73
2022/04/04 04:26:43;;;;;;;13.60;8.82;;;;;;;;;;4994241;28;98980;-72
2022/04/04 04:29:09;;;;;;;11.82;9.27;;;;;;;;;;4994135;28;99223;-72
2022/04/04 04:31:36;;;;;;;14.27;9.50;;;;;;;;;;4997542;28;99544;-72
2022/04/04 04:34:03;;;;;;;13.85;9.68;;;;;;;;;;4994055;28;99762;-72
2022/04/04 04:36:29;;;;;;;10.93;9.18;;;;;;;;;;4994326;28;98358;-76
2022/04/04 04:38:56;;;;;;;17.15;9.65;;;;;;;;;;4994562;28;98539;-73
2022/04/04 04:41:22;;;;;;;13.13;9.07;;;;;;;;;;4993712;28;100019;-73
2022/04/04 04:43:48;;;;;;;14.68;9.77;;;;;;;;;;4994153;28;99421;-72
2022/04/04 04:46:14;;;;;;;13.23;10.43;;;;;;;;;;4993602;28;99914;-74
2022/04/04 04:48:41;;;;;;;13.27;10.32;;;;;;;;;;4992774;28;99673;-74
2022/04/04 04:51:07;;;;;;;12.80;10.80;;;;;;;;;;4993249;28;98531;-73
2022/04/04 04:53:35;;;;;;;12.52;10.15;;;;;;;;;;4996302;28;99433;-74
2022/04/04 04:56:02;;;;;;;16.00;10.73;;;;;;;;;;4992754;28;98423;-74
2022/04/04 04:58:29;;;;;;;16.33;11.50;;;;;;;;;;4989133;28;100402;-74
2022/04/04 05:00:56;;;;;;;15.27;9.85;;;;;;;;;;4992971;28;99711;-73
2022/04/04 05:03:25;;;;;;;15.20;10.75;;;;;;;;;;4994234;28;97739;-74
2022/04/04 05:05:52;;;;;;;12.85;10.40;;;;;;;;;;4993105;28;98197;-75
2022/04/04 05:08:18;;;;;;;12.80;9.73;;;;;;;;;;4992140;28;99096;-74
2022/04/04 05:10:49;;;;;;;15.48;11.07;;;;;;;;;;4993350;28;99142;-74
2022/04/04 05:13:17;;;;;;;18.55;11.63;;;;;;;;;;4992810;28;100171;-75
2022/04/04 05:15:44;;;;;;;15.75;11.32;;;;;;;;;;4996022;28;99865;-75
2022/04/04 05:18:10;;;;;;;16.08;10.38;;;;;;;;;;4992833;28;99508;-74
2022/04/04 05:20:36;;;;;;;16.13;10.68;;;;;;;;;;4992048;28;99037;-76
2022/04/04 05:23:03;;;;;;;16.30;10.57;;;;;;;;;;4992330;28;98351;-74
2022/04/04 05:25:29;;;;;;;14.40;10.43;;;;;;;;;;4992395;28;99490;-75
2022/04/04 05:27:57;;;;;;;16.70;11.32;;;;;;;;;;4992717;28;98751;-73
2022/04/04 05:30:23;;;;;;;15.10;10.20;;;;;;;;;;4992606;28;98681;-74
2022/04/04 05:32:50;;;;;;;13.65;9.82;;;;;;;;;;4992656;28;99566;-76
2022/04/04 05:35:19;;;;;;;15.23;9.98;;;;;;;;;;4992205;28;100681;-73
2022/04/04 05:37:46;;;;;;;12.48;9.65;;;;;;;;;;4995092;28;98345;-75
2022/04/04 05:40:12;;;;;;;12.65;10.48;;;;;;;;;;4992807;28;99727;-74
2022/04/04 05:42:40;;;;;;;12.38;9.77;;;;;;;;;;4992570;28;98206;-71
2022/04/04 05:45:09;;;;;;;15.50;10.10;;;;;;;;;;4993003;28;99092;-74
2022/04/04 05:47:35;;;;;;;13.77;9.27;;;;;;;;;;4991634;28;99500;-76
2022/04/04 05:50:02;;;;;;;12.40;9.65;;;;;;;;;;4992697;28;98454;-74
2022/04/04 05:52:28;;;;;;;10.00;8.77;;;;;;;;;;4993963;28;98863;-75
2022/04/04 05:54:57;;;;;;;14.18;9.73;;;;;;;;;;4992988;28;99520;-74
2022/04/04 05:57:25;;;;;;;13.80;9.57;;;;;;;;;;4996092;28;98514;-71
2022/04/04 05:59:51;;;;;;;17.20;10.55;;;;;;;;;;4992061;28;100479;-74
2022/04/04 06:02:19;;;;;;;13.55;10.15;;;;;;;;;;4992446;28;98381;-73
2022/04/04 06:04:47;;;;;;;13.55;10.93;;;;;;;;;;4991949;28;99894;-75
2022/04/04 06:07:14;;;;;;;14.73;10.82;;;;;;;;;;4994664;28;99605;-74
2022/04/04 06:09:40;;;;;;;11.60;9.38;;;;;;;;;;4998896;28;98274;-74
2022/04/04 06:12:08;;;;;;;12.93;9.93;;;;;;;;;;4999469;28;99482;-74
2022/04/04 06:14:34;;;;;;;12.93;9.93;;;;;;;;;;4997603;28;102642;-75
2022/04/04 06:17:05;;;;;;;17.92;9.82;;;;;;;;;;4998859;28;97717;-75
2022/04/04 06:19:35;;;;;;;16.85;9.95;;;;;;;;;;5002233;28;99053;-75
2022/04/04 06:22:04;;;;;;;12.68;10.55;;;;;;;;;;4998688;28;98483;-75
2022/04/04 06:24:31;;;;;;;20.52;10.82;;;;;;;;;;4997992;28;99426;-74
2022/04/04 06:26:58;;;;;;;14.90;10.50;;;;;;;;;;4998251;28;99757;-74
2022/04/04 06:29:24;;;;;;;14.80;9.07;;;;;;;;;;4998550;28;98252;-75
2022/04/04 06:31:53;;;;;;;16.80;10.60;;;;;;;;;;4998915;28;99013;-76
2022/04/04 06:34:20;;;;;;;13.55;10.15;;;;;;;;;;4998105;28;98465;-73
2022/04/04 06:36:47;;;;;;;11.65;9.02;;;;;;;;;;4998500;28;98459;-74
2022/04/04 06:39:14;;;;;;;12.52;8.63;;;;;;;;;;4999268;28;99589;-74
2022/04/04 06:41:40;;;;;;;14.05;11.07;;;;;;;;;;5002348;28;99144;-74
2022/04/04 06:44:07;;;;;;;16.55;10.55;;;;;;;;;;4998084;28;98638;-75
2022/04/04 06:46:36;;;;;;;18.55;10.30;;;;;;;;;;4997011;28;99732;-74
2022/04/04 06:49:03;;;;;;;15.15;10.30;;;;;;;;;;4997818;28;99049;-74
2022/04/04 06:51:30;;;;;;;14.10;9.75;;;;;;;;;;4997975;28;100488;-74
2022/04/04 06:53:56;;;;;;;12.38;8.25;;;;;;;;;;4998421;28;99457;-74
2022/04/04 06:56:22;;;;;;;12.25;9.38;;;;;;;;;;4998439;28;98444;-72
2022/04/04 06:58:50;;;;;;;16.20;9.00;;;;;;;;;;4998496;28;98797;-74
2022/04/04 07:01:16;;;;;;;14.93;10.20;;;;;;;;;;4998488;28;99798;-73
2022/04/04 07:03:43;;;;;;;9.13;8.23;;;;;;;;;;5001238;28;98317;-75
2022/04/04 07:06:09;;;;;;;13.32;11.25;;;;;;;;;;4998894;28;99170;-74
2022/04/04 07:08:36;;;;;;;12.20;9.82;;;;;;;;;;4997873;28;98316;-73
2022/04/04 07:11:03;;;;;;;11.48;10.30;;;;;;;;;;4998737;28;99340;-73
2022/04/04 07:13:31;;;;;;;8.45;7.60;;;;;;;;;;4996588;28;102235;-74
2022/04/04 07:15:58;;;;;;;8.23;7.32;;;;;;;;;;4998648;28;98510;-73
2022/04/04 07:18:24;;;;;;;11.32;7.90;;;;;;;;;;4995953;28;99516;-73
2022/04/04 07:20:51;;;;;;;12.07;8.95;;;;;;;;;;4994943;28;99467;-74
2022/04/04 07:23:17;;;;;;;9.60;8.57;;;;;;;;;;4995265;28;98376;-73
2022/04/04 07:25:44;;;;;;;7.40;6.80;;;;;;;;;;4998266;28;99386;-73
2022/04/04 07:28:11;;;;;;;13.35;9.63;;;;;;;;;;4994842;28;98466;-74
2022/04/04 07:30:37;;;;;;;11.93;8.45;;;;;;;;;;4995701;28;99404;-72
2022/04/04 07:33:04;;;;;;;10.35;8.05;;;;;;;;;;4994766;28;99632;-73
2022/04/04 07:35:31;;;;;;;16.10;8.80;;;;;;;;;;4995289;28;98613;-74
2022/04/04 07:37:57;;;;;;;18.48;7.97;;;;;;;;;;4994628;28;99279;-74
2022/04/04 07:40:24;;;;;;;11.75;8.27;;;;;;;;;;4994624;28;100274;-73
2022/04/04 07:42:50;;;;;;;9.63;7.63;;;;;;;;;;4993692;28;98407;-72
2022/04/04 07:45:17;;;;;;;10.25;8.70;;;;;;;;;;4997673;28;101123;-72
2022/04/04 07:47:44;;;;;;;13.70;9.73;;;;;;;;;;4994419;28;98444;-73
2022/04/04 07:50:11;;;;;;;13.00;10.60;;;;;;;;;;4992906;28;99740;-73
2022/04/04 07:52:38;;;;;;;19.98;9.75;;;;;;;;;;4993280;28;99670;-73
2022/04/04 07:55:05;;;;;;;17.92;10.05;;;;;;;;;;4994171;28;97659;-73
2022/04/04 07:57:31;;;;;;;14.23;10.57;;;;;;;;;;4993055;28;98766;-74
2022/04/04 07:59:57;;;;;;;11.50;9.10;;;;;;;;;;4993196;28;99739;-71
2022/04/04 08:02:24;;;;;;;13.63;9.68;;;;;;;;;;4993308;28;99231;-73
2022/04/04 08:04:50;;;;;;;12.48;10.15;;;;;;;;;;4994088;28;99472;-73
2022/04/04 08:07:19;;;;;;;12.98;10.48;;;;;;;;;;4992074;28;100232;-71
2022/04/04 08:09:46;;;;;;;16.90;11.32;;;;;;;;;;4992662;28;99515;-73
2022/04/04 08:12:13;;;;;;;17.50;9.70;;;;;;;;;;4992862;28;101017;-74
2022/04/04 08:14:39;;;;;;;13.60;10.80;;;;;;;;;;4993844;28;98364;-71
2022/04/04 08:17:07;;;;;;;16.60;9.60;;;;;;;;;;4992713;28;99627;-72
2022/04/04 08:19:35;;;;;;;16.10;10.93;;;;;;;;;;4993929;28;98601;-71
2022/04/04 08:22:02;;;;;;;15.77;11.13;;;;;;;;;;4993197;28;98465;-70
2022/04/04 08:24:29;;;;;;;12.45;10.88;;;;;;;;;;4992435;28;99608;-70
2022/04/04 08:26:55;;;;;;;16.08;11.82;;;;;;;;;;4990372;28;102594;-75
2022/04/04 08:29:25;;;;;;;15.98;11.90;;;;;;;;;;4990941;28;98653;-75
2022/04/04 08:31:53;;;;;;;11.77;10.68;;;;;;;;;;4991436;28;101093;-79
2022/04/04 08:34:19;;;;;;;22.35;12.02;;;;;;;;;;4987582;28;98632;-71
2022/04/04 08:36:53;;;;;;;14.82;11.75;;;;;;;;;;4992113;28;100123;-79
2022/04/04 08:39:20;;;;;;;18.17;12.55;;;;;;;;;;4992719;28;99116;-75
2022/04/04 08:41:46;;;;;;;17.00;13.18;;;;;;;;;;4992904;28;98933;-75
2022/04/04 08:44:14;;;;;;;15.80;12.60;;;;;;;;;;4993050;28;99597;-77
2022/04/04 08:46:41;;;;;;;13.77;9.85;;;;;;;;;;4991778;28;99574;-76
2022/04/04 08:49:08;;;;;;;16.95;14.02;;;;;;;;;;4993402;28;98412;-71
2022/04/04 08:51:35;;;;;;;16.55;14.75;;;;;;;;;;4994891;28;99926;-76
2022/04/04 08:54:02;;;;;;;19.23;14.82;;;;;;;;;;4990365;28;98418;-77
2022/04/04 08:56:31;;;;;;;19.48;13.25;;;;;;;;;;4993314;28;98953;-77
2022/04/04 08:59:01;;;;;;;13.00;10.68;;;;;;;;;;4993195;28;98947;-75
2022/04/04 09:01:28;;;;;;;22.92;15.05;;;;;;;;;;4992218;28;98464;-75
2022/04/04 09:03:57;;;;;;;17.77;14.65;;;;;;;;;;4992393;28;99826;-75
2022/04/04 09:06:27;;;;;;;15.18;12.48;;;;;;;;;;4991328;28;100604;-75
2022/04/04 09:08:54;;;;;;;17.88;11.30;;;;;;;;;;4987778;28;97905;-76
2022/04/04 09:11:21;;;;;;;12.98;11.57;;;;;;;;;;4986885;28;99804;-75
2022/04/04 09:14:06;;;;;;;8.82;7.93;;;;;;;;;;4994783;28;101088;-77
2022/04/04 09:16:32;;;;;;;10.73;9.40;;;;;;;;;;4991350;28;99822;-77
2022/04/04 09:18:59;;;;;;;9.32;7.78;;;;;;;;;;4992601;28;99891;-78
2022/04/04 09:21:25;;;;;;;9.93;7.15;;;;;;;;;;4992925;28;98362;-77
2022/04/04 09:23:56;;;;;;;11.00;8.40;;;;;;;;;;4992834;28;99163;-76
2022/04/04 09:26:28;;;;;;;12.13;8.68;;;;;;;;;;4991828;28;99468;-77
2022/04/04 09:29:01;;;;;;;10.32;9.25;;;;;;;;;;4992467;28;98522;-77
2022/04/04 09:31:29;;;;;;;11.60;9.77;;;;;;;;;;4992770;28;99848;-76
2022/04/04 09:33:58;;;;;;;12.68;10.13;;;;;;;;;;4992803;28;98720;-76
2022/04/04 09:36:27;;;;;;;13.57;8.27;;;;;;;;;;4995006;28;98446;-78
2022/04/04 09:39:04;;;;;;;17.38;9.38;;;;;;;;;;4992142;28;99963;-76
2022/04/04 09:41:38;;;;;;;9.02;8.13;;;;;;;;;;4990575;28;99266;-74
2022/04/04 09:44:05;;;;;;;9.77;6.80;;;;;;;;;;4987324;28;100510;-75
2022/04/04 09:46:32;;;;;;;8.23;7.03;;;;;;;;;;4991198;28;99676;-74
2022/04/04 09:49:04;;;;;;;10.02;7.80;;;;;;;;;;4992600;28;99219;-75
2022/04/04 09:51:34;;;;;;;14.65;8.75;;;;;;;;;;4992327;28;100927;-75
2022/04/04 09:54:02;;;;;;;9.50;8.57;;;;;;;;;;4991333;28;100455;-75
2022/04/04 09:56:29;;;;;;;6.78;6.07;;;;;;;;;;4995167;28;98468;-76
2022/04/04 09:58:56;;;;;;;10.43;8.70;;;;;;;;;;4992775;28;98883;-74
2022/04/04 10:01:22;;;;;;;9.75;8.80;;;;;;;;;;4988497;28;98482;-74
2022/04/04 10:03:51;;;;;;;8.82;8.00;;;;;;;;;;4992207;28;99354;-74
2022/04/04 10:06:18;;;;;;;7.50;6.80;;;;;;;;;;4990916;28;100508;-75
2022/04/04 10:08:45;;;;;;;9.50;7.57;;;;;;;;;;4986492;28;99183;-74
2022/04/04 10:11:12;;;;;;;8.90;6.82;;;;;;;;;;4992071;28;98913;-75
2022/04/04 10:13:39;;;;;;;11.02;8.95;;;;;;;;;;4991821;28;99613;-75
2022/04/04 10:16:05;;;;;;;13.32;8.52;;;;;;;;;;4991397;28;98300;-74
2022/04/04 10:18:32;;;;;;;12.27;8.23;;;;;;;;;;4995097;28;98926;-74
2022/04/04 10:20:59;;;;;;;6.68;6.10;;;;;;;;;;4992164;28;98447;-76
2022/04/04 10:23:26;;;;;;;8.82;8.02;;;;;;;;;;4992136;28;99245;-75
2022/04/04 10:25:53;;;;;;;8.45;7.65;;;;;;;;;;4991111;28;99641;-76
2022/04/04 10:28:29;;;;;;;11.40;8.70;;;;;;;;;;4991501;28;98495;-75
2022/04/04 10:30:57;;;;;;;12.27;7.82;;;;;;;;;;4991095;28;101656;-71
2022/04/04 10:33:28;;;;;;;9.60;8.52;;;;;;;;;;4991496;28;99802;-74
2022/04/04 10:36:05;;;;;;;9.27;8.27;;;;;;;;;;4990767;28;98389;-73
2022/04/04 10:38:34;;;;;;;8.45;7.57;;;;;;;;;;4990914;28;100355;-73
2022/04/04 10:41:03;;;;;;;10.05;9.10;;;;;;;;;;4994793;28;99667;-73
2022/04/04 10:43:33;;;;;;;8.27;7.47;;;;;;;;;;4992028;28;98591;-74
2022/04/04 10:46:02;;;;;;;6.40;5.90;;;;;;;;;;4990949;28;99640;-74
2022/04/04 10:48:49;;;;;;;8.48;7.55;;;;;;;;;;4991382;28;97775;-74
2022/04/04 10:51:17;;;;;;;8.52;6.70;;;;;;;;;;4988550;28;99063;-72
2022/04/04 10:53:53;;;;;;;8.82;7.88;;;;;;;;;;4993655;28;100101;-73
2022/04/04 10:56:21;;;;;;;9.43;8.57;;;;;;;;;;4991570;28;99096;-72
2022/04/04 10:58:48;;;;;;;8.32;7.55;;;;;;;;;;4994405;28;100312;-73
2022/04/04 11:01:16;;;;;;;6.05;5.55;;;;;;;;;;4994924;28;98939;-74
2022/04/04 11:03:52;;;;;;;7.80;7.07;;;;;;;;;;4998468;28;98358;-74
2022/04/04 11:09:26;;;;;;;11.38;8.40;;;;;;;;;;4990902;28;98430;-78
2022/04/04 11:12:28;;;;;;;7.85;6.40;;;;;;;;;;4994963;28;99000;-71
2022/04/04 11:14:46;;;;;;;9.40;8.57;;;;;;;;;;4989427;28;101644;-73
2022/04/04 11:20:33;;;;;;;8.73;7.82;;;;;;;;;;4995571;28;99226;-75
2022/04/04 11:23:03;;;;;;;7.50;6.65;;;;;;;;;;4994410;28;100668;-75
2022/04/04 11:25:34;;;;;;;5.25;4.82;;;;;;;;;;4995459;28;98431;-74
2022/04/04 11:28:01;;;;;;;4.43;4.10;;;;;;;;;;4996958;28;99940;-73
2022/04/04 11:30:27;;;;;;;6.68;6.07;;;;;;;;;;4995140;28;98429;-74
2022/04/04 11:35:48;;;;;;;7.18;6.40;;;;;;;;;;4994821;28;99456;-74
2022/04/04 11:38:17;;;;;;;6.45;5.85;;;;;;;;;;4995105;28;98242;-74
2022/04/04 11:40:45;;;;;;;5.32;5.03;;;;;;;;;;4995433;28;101129;-74
2022/04/04 11:43:24;;;;;;;4.90;4.50;;;;;;;;;;4994548;28;100964;-74
2022/04/04 11:49:07;;;;;;;5.10;4.70;;;;;;;;;;4993354;28;100521;-74
2022/04/04 11:51:37;;;;;;;5.85;5.35;;;;;;;;;;4997864;28;99846;-74
2022/04/04 11:54:04;;;;;;;3.58;3.38;;;;;;;;;;4994466;28;99536;-74
2022/04/04 11:56:31;;;;;;;5.00;4.70;;;;;;;;;;4994397;28;99860;-75
2022/04/04 11:58:57;;;;;;;5.72;4.68;;;;;;;;;;4995005;28;98452;-75
2022/04/04 12:01:27;;;;;;;4.40;4.00;;;;;;;;;;4994550;28;99945;-75
2022/04/04 12:03:54;;;;;;;4.43;4.13;;;;;;;;;;4993785;28;99678;-73
2022/04/04 12:06:20;;;;;;;4.35;4.05;;;;;;;;;;4994986;28;97521;-73
2022/04/04 12:08:47;;;;;;;5.05;4.70;;;;;;;;;;4994267;28;98939;-74
2022/04/04 12:11:25;;;;;;;3.03;2.92;;;;;;;;;;4997411;28;99463;-73
2022/04/04 12:13:56;;;;;;;4.57;4.32;;;;;;;;;;4994119;28;99575;-73
2022/04/04 12:16:24;;;;;;;5.03;3.40;;;;;;;;;;4993877;28;100484;-73
2022/04/04 12:18:55;;;;;;;4.03;2.97;;;;;;;;;;4993513;28;98323;-73
2022/04/04 12:21:21;;;;;;;3.25;2.80;;;;;;;;;;4992857;28;100456;-73
2022/04/04 12:26:35;;;;;;;3.30;3.10;;;;;;;;;;4994431;28;98463;-74
2022/04/04 12:29:03;;;;;;;3.33;2.85;;;;;;;;;;4994274;28;99572;-74
2022/04/04 12:31:29;;;;;;;2.88;2.67;;;;;;;;;;4994303;28;99016;-74
2022/04/04 12:34:00;;;;;;;4.63;3.50;;;;;;;;;;4997362;28;98433;-74
2022/04/04 12:36:30;;;;;;;3.35;3.15;;;;;;;;;;4993802;28;99535;-74
2022/04/04 12:38:57;;;;;;;2.38;2.28;;;;;;;;;;4993745;28;99059;-75
2022/04/04 12:41:24;;;;;;;3.60;3.40;;;;;;;;;;4993911;28;101293;-74
2022/04/04 12:43:58;;;;;;;3.05;2.85;;;;;;;;;;5007830;28;99256;-74
2022/04/04 12:46:29;;;;;;;5.40;3.25;;;;;;;;;;4991099;28;99713;-74
2022/04/04 12:49:17;;;;;;;2.90;2.80;;;;;;;;;;4992585;28;100643;-74
2022/04/04 12:51:55;;;;;;;2.40;2.30;;;;;;;;;;4989479;28;100640;-74
2022/04/04 12:54:25;;;;;;;1.98;1.88;;;;;;;;;;4993139;28;98525;-75
2022/04/04 12:56:52;;;;;;;2.20;2.10;;;;;;;;;;4995930;28;99354;-75
2022/04/04 12:59:20;;;;;;;3.20;3.00;;;;;;;;;;4992888;28;98785;-75
2022/04/04 13:02:01;;;;;;;2.20;2.10;;;;;;;;;;4993143;28;99736;-75
2022/04/04 13:04:29;;;;;;;2.20;2.10;;;;;;;;;;4992224;28;99945;-75
2022/04/04 13:06:57;;;;;;;2.00;1.90;;;;;;;;;;4992399;28;99657;-76
2022/04/04 13:09:24;;;;;;;2.28;2.08;;;;;;;;;;4992599;28;99392;-74
2022/04/04 13:11:52;;;;;;;2.30;2.10;;;;;;;;;;4992999;28;98988;-76
2022/04/04 13:14:21;;;;;;;2.20;2.10;;;;;;;;;;4993498;28;98360;-75
2022/04/04 13:16:51;;;;;;;3.13;1.80;;;;;;;;;;4987734;28;99616;-75
2022/04/04 13:19:17;;;;;;;2.08;1.98;;;;;;;;;;4992080;28;99510;-76
2022/04/04 13:21:50;;;;;;;2.55;2.45;;;;;;;;;;4993234;28;98911;-75
2022/04/04 13:24:17;;;;;;;2.28;2.15;;;;;;;;;;4988606;28;100065;-75
2022/04/04 13:26:48;;;;;;;2.28;2.17;;;;;;;;;;4992230;28;98481;-75
2022/04/04 13:29:15;;;;;;;2.00;1.90;;;;;;;;;;4986760;28;101198;-76
2022/04/04 13:31:42;;;;;;;2.00;1.30;;;;;;;;;;4992612;28;99727;-75
2022/04/04 13:34:09;;;;;;;1.88;1.77;;;;;;;;;;4992345;28;98615;-75
2022/04/04 13:36:37;;;;;;;1.27;1.27;;;;;;;;;;4992471;28;98800;-73
2022/04/04 13:39:09;;;;;;;2.22;2.13;;;;;;;;;;4991434;28;99214;-75
2022/04/04 13:41:37;;;;;;;1.98;1.88;;;;;;;;;;4995864;28;98411;-74
2022/04/04 13:44:04;;;;;;;3.28;1.45;;;;;;;;;;4992324;28;99085;-74
2022/04/04 13:46:31;;;;;;;1.77;1.67;;;;;;;;;;4992533;28;98420;-74
2022/04/04 13:48:58;;;;;;;1.80;1.70;;;;;;;;;;4983601;28;99543;-74
2022/04/04 13:51:26;;;;;;;1.45;1.35;;;;;;;;;;4992184;28;99499;-75
2022/04/04 13:53:57;;;;;;;2.17;2.05;;;;;;;;;;4991989;28;99174;-74
2022/04/04 13:56:24;;;;;;;2.20;2.10;;;;;;;;;;4991825;28;100568;-75
2022/04/04 13:58:51;;;;;;;2.30;2.20;;;;;;;;;;4992372;28;98908;-75
2022/04/04 14:01:19;;;;;;;2.03;1.92;;;;;;;;;;4987003;28;98381;-75
2022/04/04 14:03:46;;;;;;;1.67;1.60;;;;;;;;;;4995165;28;99266;-75
2022/04/04 14:06:12;;;;;;;1.83;1.73;;;;;;;;;;4992026;28;99474;-74
2022/04/04 14:08:45;;;;;;;2.45;2.35;;;;;;;;;;4992175;28;99154;-79
2022/04/04 14:11:18;;;;;;;2.58;2.38;;;;;;;;;;4989869;28;101664;-82
2022/04/04 14:13:45;;;;;;;2.20;2.10;;;;;;;;;;4990178;28;99161;-78
2022/04/04 14:16:14;;;;;;;1.45;1.45;;;;;;;;;;4989838;28;99332;-79
2022/04/04 14:18:41;;;;;;;2.13;2.03;;;;;;;;;;4989235;28;101773;-75
2022/04/04 14:21:08;;;;;;;2.38;2.28;;;;;;;;;;4990389;28;98539;-74
2022/04/04 14:23:37;;;;;;;2.40;2.30;;;;;;;;;;4993312;28;99538;-73
2022/04/04 14:26:04;;;;;;;2.47;2.38;;;;;;;;;;4989927;28;98560;-75
2022/04/04 14:28:33;;;;;;;2.50;2.38;;;;;;;;;;4991671;28;99323;-73
2022/04/04 14:31:00;;;;;;;2.33;2.22;;;;;;;;;;4993703;28;99786;-74
2022/04/04 14:33:27;;;;;;;2.58;2.47;;;;;;;;;;4994321;28;99069;-74
2022/04/04 14:35:54;;;;;;;3.00;2.80;;;;;;;;;;4994627;28;99494;-73
2022/04/04 14:38:21;;;;;;;3.10;2.90;;;;;;;;;;4993482;28;101261;-74
2022/04/04 14:40:48;;;;;;;4.20;3.90;;;;;;;;;;4993417;28;98447;-74
2022/04/04 14:43:14;;;;;;;3.20;3.08;;;;;;;;;;4981128;28;99529;-75
2022/04/04 14:45:40;;;;;;;3.35;3.15;;;;;;;;;;4997492;28;99919;-74
2022/04/04 14:48:07;;;;;;;3.60;3.30;;;;;;;;;;4994993;28;98792;-75
2022/04/04 14:50:34;;;;;;;3.47;3.28;;;;;;;;;;4988151;28;101344;-74